sensor_id;sensor_type;location;lat;lon;timestamp;temperature;humidity
19025;DHT22;9645;51.448;6.260;2023-05-19T00:01:23;9.40;99.90
19025;DHT22;9645;51.448;6.260;2023-05-19T00:03:51;9.50;99.90
19025;DHT22;9645;51.448;6.260;2023-05-19T00:06:23;9.30;99.90
19025;DHT22;9645;51.448;6.260;2023-05-19T00:08:56;9.20;99.90
19025;DHT22;9645;51.448;6.260;2023-05-19T00:11:24;9.10;99.90
19025;DHT22;9645;51.448;6.260;2023-05-19T00:13:52;9.00;99.90
19025;DHT22;9645;51.448;6.260;2023-05-19T00:16:20;9.00;99.90
19025;DHT22;9645;51.448;6.260;2023-05-19T00:18:48;8.90;99.90
19025;DHT22;9645;51.448;6.260;2023-05-19T00:21:16;8.70;99.90
19025;DHT22;9645;51.448;6.260;2023-05-19T00:26:11;8.90;99.90
19025;DHT22;9645;51.448;6.260;2023-05-19T00:28:38;8.90;99.90
19025;DHT22;9645;51.448;6.260;2023-05-19T00:31:05;8.90;99.90
19025;DHT22;9645;51.448;6.260;2023-05-19T00:33:32;8.90;99.90
19025;DHT22;9645;51.448;6.260;2023-05-19T00:36:01;8.80;99.90
19025;DHT22;9645;51.448;6.260;2023-05-19T00:38:30;8.80;99.90
19025;DHT22;9645;51.448;6.260;2023-05-19T00:40:57;8.50;99.90
19025;DHT22;9645;51.448;6.260;2023-05-19T00:43:24;8.70;99.90
19025;DHT22;9645;51.448;6.260;2023-05-19T00:48:19;8.60;99.90
19025;DHT22;9645;51.448;6.260;2023-05-19T00:50:47;8.60;99.90
19025;DHT22;9645;51.448;6.260;2023-05-19T00:53:17;8.50;99.90
19025;DHT22;9645;51.448;6.260;2023-05-19T00:55:44;8.50;99.90
19025;DHT22;9645;51.448;6.260;2023-05-19T00:58:13;8.40;99.90
19025;DHT22;9645;51.448;6.260;2023-05-19T01:00:40;8.40;99.90
19025;DHT22;9645;51.448;6.260;2023-05-19T01:03:07;8.40;99.90
19025;DHT22;9645;51.448;6.260;2023-05-19T01:05:38;8.40;99.90
19025;DHT22;9645;51.448;6.260;2023-05-19T01:08:06;8.50;99.90
19025;DHT22;9645;51.448;6.260;2023-05-19T01:10:34;8.20;99.90
19025;DHT22;9645;51.448;6.260;2023-05-19T01:13:02;8.30;99.90
19025;DHT22;9645;51.448;6.260;2023-05-19T01:15:29;8.20;99.90
19025;DHT22;9645;51.448;6.260;2023-05-19T01:18:07;8.60;99.90
19025;DHT22;9645;51.448;6.260;2023-05-19T01:20:40;8.30;99.90
19025;DHT22;9645;51.448;6.260;2023-05-19T01:23:32;8.30;99.90
19025;DHT22;9645;51.448;6.260;2023-05-19T01:26:27;8.20;99.90
19025;DHT22;9645;51.448;6.260;2023-05-19T01:29:27;7.70;99.90
19025;DHT22;9645;51.448;6.260;2023-05-19T01:31:58;8.10;99.90
19025;DHT22;9645;51.448;6.260;2023-05-19T01:34:26;8.10;99.90
19025;DHT22;9645;51.448;6.260;2023-05-19T01:36:54;8.10;99.90
19025;DHT22;9645;51.448;6.260;2023-05-19T01:39:22;8.10;99.90
19025;DHT22;9645;51.448;6.260;2023-05-19T01:41:49;8.00;99.90
19025;DHT22;9645;51.448;6.260;2023-05-19T01:44:17;8.00;99.90
19025;DHT22;9645;51.448;6.260;2023-05-19T01:49:13;7.90;99.90
19025;DHT22;9645;51.448;6.260;2023-05-19T01:51:40;7.90;99.90
19025;DHT22;9645;51.448;6.260;2023-05-19T01:54:07;7.80;99.90
19025;DHT22;9645;51.448;6.260;2023-05-19T01:56:42;7.80;99.90
19025;DHT22;9645;51.448;6.260;2023-05-19T01:59:21;7.80;99.90
19025;DHT22;9645;51.448;6.260;2023-05-19T02:01:52;7.60;99.90
19025;DHT22;9645;51.448;6.260;2023-05-19T02:04:26;7.70;99.90
19025;DHT22;9645;51.448;6.260;2023-05-19T02:07:00;7.70;99.90
19025;DHT22;9645;51.448;6.260;2023-05-19T02:09:33;7.70;99.90
19025;DHT22;9645;51.448;6.260;2023-05-19T02:12:10;10.00;99.90
19025;DHT22;9645;51.448;6.260;2023-05-19T02:14:44;7.70;99.90
19025;DHT22;9645;51.448;6.260;2023-05-19T02:17:12;7.70;99.90
19025;DHT22;9645;51.448;6.260;2023-05-19T02:19:42;7.70;99.90
19025;DHT22;9645;51.448;6.260;2023-05-19T02:22:09;7.60;99.90
19025;DHT22;9645;51.448;6.260;2023-05-19T02:27:04;7.70;99.90
19025;DHT22;9645;51.448;6.260;2023-05-19T02:32:00;7.60;99.90
19025;DHT22;9645;51.448;6.260;2023-05-19T02:36:55;7.80;99.90
19025;DHT22;9645;51.448;6.260;2023-05-19T02:39:22;7.20;99.90
19025;DHT22;9645;51.448;6.260;2023-05-19T02:44:16;7.50;99.90
19025;DHT22;9645;51.448;6.260;2023-05-19T02:54:06;7.50;99.90
19025;DHT22;9645;51.448;6.260;2023-05-19T02:56:33;8.00;99.90
19025;DHT22;9645;51.448;6.260;2023-05-19T03:01:27;7.40;99.90
19025;DHT22;9645;51.448;6.260;2023-05-19T03:06:21;7.40;99.90
19025;DHT22;9645;51.448;6.260;2023-05-19T03:11:17;7.40;99.90
19025;DHT22;9645;51.448;6.260;2023-05-19T03:16:11;7.40;99.90
19025;DHT22;9645;51.448;6.260;2023-05-19T03:23:33;7.30;99.90
19025;DHT22;9645;51.448;6.260;2023-05-19T03:26:00;7.30;99.90
19025;DHT22;9645;51.448;6.260;2023-05-19T03:28:30;7.20;99.90
19025;DHT22;9645;51.448;6.260;2023-05-19T03:30:57;7.40;99.90
19025;DHT22;9645;51.448;6.260;2023-05-19T03:43:14;7.30;99.90
19025;DHT22;9645;51.448;6.260;2023-05-19T03:45:43;7.20;99.90
19025;DHT22;9645;51.448;6.260;2023-05-19T03:48:10;7.00;99.90
19025;DHT22;9645;51.448;6.260;2023-05-19T03:53:04;7.10;99.90
19025;DHT22;9645;51.448;6.260;2023-05-19T04:00:25;7.80;99.90
19025;DHT22;9645;51.448;6.260;2023-05-19T04:02:54;7.30;99.90
19025;DHT22;9645;51.448;6.260;2023-05-19T04:15:10;7.40;99.90
19025;DHT22;9645;51.448;6.260;2023-05-19T04:17:37;7.60;99.90
19025;DHT22;9645;51.448;6.260;2023-05-19T04:20:07;7.50;99.90
19025;DHT22;9645;51.448;6.260;2023-05-19T04:25:01;7.60;99.90
19025;DHT22;9645;51.448;6.260;2023-05-19T04:27:30;7.60;99.90
19025;DHT22;9645;51.448;6.260;2023-05-19T04:32:32;7.60;99.90
19025;DHT22;9645;51.448;6.260;2023-05-19T04:35:02;7.60;99.90
19025;DHT22;9645;51.448;6.260;2023-05-19T04:37:31;7.80;99.90
19025;DHT22;9645;51.448;6.260;2023-05-19T04:42:31;7.80;99.90
19025;DHT22;9645;51.448;6.260;2023-05-19T04:47:25;8.20;99.90
19025;DHT22;9645;51.448;6.260;2023-05-19T04:49:52;8.10;99.90
19025;DHT22;9645;51.448;6.260;2023-05-19T04:54:49;8.30;99.90
19025;DHT22;9645;51.448;6.260;2023-05-19T04:57:15;8.50;99.90
19025;DHT22;9645;51.448;6.260;2023-05-19T05:09:35;8.60;99.90
19025;DHT22;9645;51.448;6.260;2023-05-19T05:12:04;8.70;99.90
19025;DHT22;9645;51.448;6.260;2023-05-19T05:14:33;8.70;99.90
19025;DHT22;9645;51.448;6.260;2023-05-19T05:19:28;9.10;99.90
19025;DHT22;9645;51.448;6.260;2023-05-19T05:21:55;9.20;99.90
19025;DHT22;9645;51.448;6.260;2023-05-19T05:24:23;9.40;99.90
19025;DHT22;9645;51.448;6.260;2023-05-19T05:26:51;9.50;99.90
19025;DHT22;9645;51.448;6.260;2023-05-19T05:29:19;9.60;99.90
19025;DHT22;9645;51.448;6.260;2023-05-19T05:31:46;9.80;99.90
19025;DHT22;9645;51.448;6.260;2023-05-19T05:34:13;9.80;99.90
19025;DHT22;9645;51.448;6.260;2023-05-19T05:41:35;10.30;99.90
19025;DHT22;9645;51.448;6.260;2023-05-19T05:44:04;10.40;1.00
19025;DHT22;9645;51.448;6.260;2023-05-19T05:46:34;10.60;99.90
19025;DHT22;9645;51.448;6.260;2023-05-19T05:49:01;10.70;99.90
19025;DHT22;9645;51.448;6.260;2023-05-19T05:53:59;11.00;1.00
19025;DHT22;9645;51.448;6.260;2023-05-19T05:56:26;11.20;99.90
19025;DHT22;9645;51.448;6.260;2023-05-19T05:58:53;11.40;1.00
19025;DHT22;9645;51.448;6.260;2023-05-19T06:01:21;11.30;1.00
19025;DHT22;9645;51.448;6.260;2023-05-19T06:03:49;11.60;1.00
19025;DHT22;9645;51.448;6.260;2023-05-19T06:06:17;11.80;99.90
19025;DHT22;9645;51.448;6.260;2023-05-19T06:11:11;12.20;1.00
19025;DHT22;9645;51.448;6.260;2023-05-19T06:13:39;12.50;1.00
19025;DHT22;9645;51.448;6.260;2023-05-19T06:16:07;12.70;1.00
19025;DHT22;9645;51.448;6.260;2023-05-19T06:21:03;13.00;54.30
19025;DHT22;9645;51.448;6.260;2023-05-19T06:25:57;13.10;1.00
19025;DHT22;9645;51.448;6.260;2023-05-19T06:35:46;13.90;1.00
19025;DHT22;9645;51.448;6.260;2023-05-19T06:38:14;14.00;1.00
19025;DHT22;9645;51.448;6.260;2023-05-19T06:45:36;14.20;1.00
19025;DHT22;9645;51.448;6.260;2023-05-19T06:48:03;14.20;99.90
19025;DHT22;9645;51.448;6.260;2023-05-19T06:55:26;14.50;1.00
19025;DHT22;9645;51.448;6.260;2023-05-19T07:07:46;14.70;99.90
19025;DHT22;9645;51.448;6.260;2023-05-19T07:12:42;14.50;99.90
19025;DHT22;9645;51.448;6.260;2023-05-19T07:15:10;14.60;1.00
19025;DHT22;9645;51.448;6.260;2023-05-19T07:17:41;14.90;99.90
19025;DHT22;9645;51.448;6.260;2023-05-19T07:20:09;15.00;1.00
19025;DHT22;9645;51.448;6.260;2023-05-19T07:22:37;15.20;1.00
19025;DHT22;9645;51.448;6.260;2023-05-19T07:25:05;15.50;1.00
19025;DHT22;9645;51.448;6.260;2023-05-19T07:27:32;15.80;1.00
19025;DHT22;9645;51.448;6.260;2023-05-19T07:30:02;16.40;99.90
19025;DHT22;9645;51.448;6.260;2023-05-19T07:32:29;16.60;99.90
19025;DHT22;9645;51.448;6.260;2023-05-19T07:42:19;17.40;99.90
19025;DHT22;9645;51.448;6.260;2023-05-19T07:44:46;17.40;99.90
19025;DHT22;9645;51.448;6.260;2023-05-19T07:47:14;17.60;99.90
19025;DHT22;9645;51.448;6.260;2023-05-19T07:49:41;17.80;99.90
19025;DHT22;9645;51.448;6.260;2023-05-19T07:52:08;18.00;99.90
19025;DHT22;9645;51.448;6.260;2023-05-19T07:54:37;18.00;99.90
19025;DHT22;9645;51.448;6.260;2023-05-19T08:02:00;18.30;99.90
19025;DHT22;9645;51.448;6.260;2023-05-19T08:04:28;18.20;99.90
19025;DHT22;9645;51.448;6.260;2023-05-19T08:09:23;18.40;99.90
19025;DHT22;9645;51.448;6.260;2023-05-19T08:14:17;18.90;99.90
19025;DHT22;9645;51.448;6.260;2023-05-19T08:20:29;18.80;99.90
19025;DHT22;9645;51.448;6.260;2023-05-19T08:22:56;19.00;99.90
19025;DHT22;9645;51.448;6.260;2023-05-19T08:30:17;19.10;1.00
19025;DHT22;9645;51.448;6.260;2023-05-19T08:32:44;19.20;99.90
19025;DHT22;9645;51.448;6.260;2023-05-19T08:35:13;19.30;99.90
19025;DHT22;9645;51.448;6.260;2023-05-19T08:37:42;19.30;99.90
19025;DHT22;9645;51.448;6.260;2023-05-19T08:40:13;19.50;99.90
19025;DHT22;9645;51.448;6.260;2023-05-19T08:42:42;19.60;99.90
19025;DHT22;9645;51.448;6.260;2023-05-19T08:45:10;19.80;99.90
19025;DHT22;9645;51.448;6.260;2023-05-19T08:47:38;19.80;99.90
19025;DHT22;9645;51.448;6.260;2023-05-19T08:50:07;20.20;99.90
19025;DHT22;9645;51.448;6.260;2023-05-19T08:52:45;20.30;99.90
19025;DHT22;9645;51.448;6.260;2023-05-19T08:55:18;20.40;99.90
19025;DHT22;9645;51.448;6.260;2023-05-19T08:57:50;20.60;99.90
19025;DHT22;9645;51.448;6.260;2023-05-19T09:00:18;20.60;99.90
19025;DHT22;9645;51.448;6.260;2023-05-19T09:02:47;20.80;99.90
19025;DHT22;9645;51.448;6.260;2023-05-19T09:05:15;20.80;99.90
19025;DHT22;9645;51.448;6.260;2023-05-19T09:07:44;20.60;99.90
19025;DHT22;9645;51.448;6.260;2023-05-19T09:10:13;20.60;99.90
19025;DHT22;9645;51.448;6.260;2023-05-19T09:12:41;20.50;99.90
19025;DHT22;9645;51.448;6.260;2023-05-19T09:15:11;20.60;99.90
19025;DHT22;9645;51.448;6.260;2023-05-19T09:17:38;20.80;99.90
19025;DHT22;9645;51.448;6.260;2023-05-19T09:20:06;20.90;99.90
19025;DHT22;9645;51.448;6.260;2023-05-19T09:22:40;21.40;99.90
19025;DHT22;9645;51.448;6.260;2023-05-19T09:25:18;20.50;99.90
19025;DHT22;9645;51.448;6.260;2023-05-19T09:27:46;23.40;99.90
19025;DHT22;9645;51.448;6.260;2023-05-19T09:30:15;20.40;99.90
19025;DHT22;9645;51.448;6.260;2023-05-19T09:32:42;20.50;99.90
19025;DHT22;9645;51.448;6.260;2023-05-19T09:35:10;20.40;99.90
19025;DHT22;9645;51.448;6.260;2023-05-19T09:37:38;20.60;99.90
19025;DHT22;9645;51.448;6.260;2023-05-19T09:40:07;20.90;99.90
19025;DHT22;9645;51.448;6.260;2023-05-19T09:42:38;21.10;99.90
19025;DHT22;9645;51.448;6.260;2023-05-19T09:45:06;21.10;99.90
19025;DHT22;9645;51.448;6.260;2023-05-19T09:47:34;21.20;99.90
19025;DHT22;9645;51.448;6.260;2023-05-19T09:50:04;21.30;99.90
19025;DHT22;9645;51.448;6.260;2023-05-19T09:52:34;21.40;99.90
19025;DHT22;9645;51.448;6.260;2023-05-19T09:55:02;21.60;99.90
19025;DHT22;9645;51.448;6.260;2023-05-19T09:57:33;21.80;99.90
19025;DHT22;9645;51.448;6.260;2023-05-19T10:00:04;22.00;99.90
19025;DHT22;9645;51.448;6.260;2023-05-19T10:02:41;22.30;99.90
19025;DHT22;9645;51.448;6.260;2023-05-19T10:05:11;22.30;1.00
19025;DHT22;9645;51.448;6.260;2023-05-19T10:07:42;22.50;1.00
19025;DHT22;9645;51.448;6.260;2023-05-19T10:10:11;22.20;1.00
19025;DHT22;9645;51.448;6.260;2023-05-19T10:12:39;22.60;1.00
19025;DHT22;9645;51.448;6.260;2023-05-19T10:15:12;22.60;1.00
19025;DHT22;9645;51.448;6.260;2023-05-19T10:17:40;22.60;1.00
19025;DHT22;9645;51.448;6.260;2023-05-19T10:20:09;22.60;1.00
19025;DHT22;9645;51.448;6.260;2023-05-19T10:22:37;22.60;1.00
19025;DHT22;9645;51.448;6.260;2023-05-19T10:25:05;22.60;1.00
19025;DHT22;9645;51.448;6.260;2023-05-19T10:27:34;22.50;1.00
19025;DHT22;9645;51.448;6.260;2023-05-19T10:30:07;22.70;1.00
19025;DHT22;9645;51.448;6.260;2023-05-19T10:32:41;23.00;1.00
19025;DHT22;9645;51.448;6.260;2023-05-19T10:38:11;22.90;1.00
19025;DHT22;9645;51.448;6.260;2023-05-19T10:40:52;23.20;1.00
19025;DHT22;9645;51.448;6.260;2023-05-19T10:43:27;23.00;1.00
19025;DHT22;9645;51.448;6.260;2023-05-19T10:45:56;22.70;1.00
19025;DHT22;9645;51.448;6.260;2023-05-19T10:48:25;22.60;1.00
19025;DHT22;9645;51.448;6.260;2023-05-19T10:50:56;22.60;1.00
19025;DHT22;9645;51.448;6.260;2023-05-19T10:53:40;22.70;1.00
19025;DHT22;9645;51.448;6.260;2023-05-19T10:56:11;22.80;1.00
19025;DHT22;9645;51.448;6.260;2023-05-19T10:58:48;23.00;1.00
19025;DHT22;9645;51.448;6.260;2023-05-19T11:01:17;23.00;1.00
19025;DHT22;9645;51.448;6.260;2023-05-19T11:03:50;23.00;1.00
19025;DHT22;9645;51.448;6.260;2023-05-19T11:06:19;23.50;1.00
19025;DHT22;9645;51.448;6.260;2023-05-19T11:08:50;23.40;1.00
19025;DHT22;9645;51.448;6.260;2023-05-19T11:11:18;23.30;1.00
19025;DHT22;9645;51.448;6.260;2023-05-19T11:13:47;23.30;1.00
19025;DHT22;9645;51.448;6.260;2023-05-19T11:16:18;23.50;1.00
19025;DHT22;9645;51.448;6.260;2023-05-19T11:18:52;23.30;1.00
19025;DHT22;9645;51.448;6.260;2023-05-19T11:21:20;23.50;1.00
19025;DHT22;9645;51.448;6.260;2023-05-19T11:23:47;23.80;1.00
19025;DHT22;9645;51.448;6.260;2023-05-19T11:26:14;23.90;1.00
19025;DHT22;9645;51.448;6.260;2023-05-19T11:28:41;24.00;1.00
19025;DHT22;9645;51.448;6.260;2023-05-19T11:31:10;24.10;1.00
19025;DHT22;9645;51.448;6.260;2023-05-19T11:33:37;24.00;1.00
19025;DHT22;9645;51.448;6.260;2023-05-19T11:36:07;24.20;1.00
19025;DHT22;9645;51.448;6.260;2023-05-19T11:38:34;24.10;1.00
19025;DHT22;9645;51.448;6.260;2023-05-19T11:41:02;24.10;1.00
19025;DHT22;9645;51.448;6.260;2023-05-19T11:43:29;24.30;1.00
19025;DHT22;9645;51.448;6.260;2023-05-19T11:45:56;24.60;1.00
19025;DHT22;9645;51.448;6.260;2023-05-19T11:48:24;24.90;1.00
19025;DHT22;9645;51.448;6.260;2023-05-19T11:50:52;25.10;1.00
19025;DHT22;9645;51.448;6.260;2023-05-19T11:53:20;25.30;1.00
19025;DHT22;9645;51.448;6.260;2023-05-19T11:55:48;24.90;1.00
19025;DHT22;9645;51.448;6.260;2023-05-19T11:58:15;24.30;1.00
19025;DHT22;9645;51.448;6.260;2023-05-19T12:00:43;23.90;1.00
19025;DHT22;9645;51.448;6.260;2023-05-19T12:03:12;23.90;1.00
19025;DHT22;9645;51.448;6.260;2023-05-19T12:05:42;23.10;1.00
19025;DHT22;9645;51.448;6.260;2023-05-19T12:08:09;22.90;1.00
19025;DHT22;9645;51.448;6.260;2023-05-19T12:10:38;22.30;1.00
19025;DHT22;9645;51.448;6.260;2023-05-19T12:13:05;22.50;1.00
19025;DHT22;9645;51.448;6.260;2023-05-19T12:15:34;22.50;1.00
19025;DHT22;9645;51.448;6.260;2023-05-19T12:18:01;23.60;1.00
19025;DHT22;9645;51.448;6.260;2023-05-19T12:20:29;23.80;1.00
19025;DHT22;9645;51.448;6.260;2023-05-19T12:22:57;23.90;1.00
19025;DHT22;9645;51.448;6.260;2023-05-19T12:25:26;23.80;1.00
19025;DHT22;9645;51.448;6.260;2023-05-19T12:27:58;24.10;1.00
19025;DHT22;9645;51.448;6.260;2023-05-19T12:30:26;24.10;1.00
19025;DHT22;9645;51.448;6.260;2023-05-19T12:32:54;24.30;1.00
19025;DHT22;9645;51.448;6.260;2023-05-19T12:35:25;24.60;1.00
19025;DHT22;9645;51.448;6.260;2023-05-19T12:37:52;24.80;1.00
19025;DHT22;9645;51.448;6.260;2023-05-19T12:40:20;24.70;1.00
19025;DHT22;9645;51.448;6.260;2023-05-19T12:42:48;24.60;1.00
19025;DHT22;9645;51.448;6.260;2023-05-19T12:45:20;24.50;1.00
19025;DHT22;9645;51.448;6.260;2023-05-19T12:47:50;24.50;1.00
19025;DHT22;9645;51.448;6.260;2023-05-19T12:50:17;24.50;1.00
19025;DHT22;9645;51.448;6.260;2023-05-19T12:52:46;24.20;1.00
19025;DHT22;9645;51.448;6.260;2023-05-19T12:55:14;23.90;1.00
19025;DHT22;9645;51.448;6.260;2023-05-19T12:57:43;23.50;1.00
19025;DHT22;9645;51.448;6.260;2023-05-19T13:00:14;23.50;1.00
19025;DHT22;9645;51.448;6.260;2023-05-19T13:03:01;23.60;1.00
19025;DHT22;9645;51.448;6.260;2023-05-19T13:05:30;23.60;1.00
19025;DHT22;9645;51.448;6.260;2023-05-19T13:07:59;23.70;1.00
19025;DHT22;9645;51.448;6.260;2023-05-19T13:10:27;23.70;1.00
19025;DHT22;9645;51.448;6.260;2023-05-19T13:12:54;23.90;1.00
19025;DHT22;9645;51.448;6.260;2023-05-19T13:15:22;23.80;1.00
19025;DHT22;9645;51.448;6.260;2023-05-19T13:17:51;23.80;1.00
19025;DHT22;9645;51.448;6.260;2023-05-19T13:20:20;23.90;1.00
19025;DHT22;9645;51.448;6.260;2023-05-19T13:22:47;24.10;1.00
19025;DHT22;9645;51.448;6.260;2023-05-19T13:25:15;23.00;1.00
19025;DHT22;9645;51.448;6.260;2023-05-19T13:27:43;24.10;1.00
19025;DHT22;9645;51.448;6.260;2023-05-19T13:30:11;23.90;1.00
19025;DHT22;9645;51.448;6.260;2023-05-19T13:32:38;24.10;1.00
19025;DHT22;9645;51.448;6.260;2023-05-19T13:35:06;24.20;1.00
19025;DHT22;9645;51.448;6.260;2023-05-19T13:37:35;23.90;1.00
19025;DHT22;9645;51.448;6.260;2023-05-19T13:40:02;23.60;1.00
19025;DHT22;9645;51.448;6.260;2023-05-19T13:42:30;23.70;1.00
19025;DHT22;9645;51.448;6.260;2023-05-19T13:44:58;23.50;1.00
19025;DHT22;9645;51.448;6.260;2023-05-19T13:47:25;23.50;1.00
19025;DHT22;9645;51.448;6.260;2023-05-19T13:49:52;23.30;1.00
19025;DHT22;9645;51.448;6.260;2023-05-19T13:52:20;23.30;1.00
19025;DHT22;9645;51.448;6.260;2023-05-19T13:54:49;23.30;1.00
19025;DHT22;9645;51.448;6.260;2023-05-19T13:59:47;23.50;1.00
19025;DHT22;9645;51.448;6.260;2023-05-19T14:02:14;23.50;1.00
19025;DHT22;9645;51.448;6.260;2023-05-19T14:04:41;23.60;1.00
19025;DHT22;9645;51.448;6.260;2023-05-19T14:07:08;23.60;1.00
19025;DHT22;9645;51.448;6.260;2023-05-19T14:09:35;23.50;1.00
19025;DHT22;9645;51.448;6.260;2023-05-19T14:12:04;23.10;1.00
19025;DHT22;9645;51.448;6.260;2023-05-19T14:14:31;23.00;1.00
19025;DHT22;9645;51.448;6.260;2023-05-19T14:17:00;23.00;1.00
19025;DHT22;9645;51.448;6.260;2023-05-19T14:19:27;23.00;1.00
19025;DHT22;9645;51.448;6.260;2023-05-19T14:21:55;23.10;1.00
19025;DHT22;9645;51.448;6.260;2023-05-19T14:24:22;23.20;1.00
19025;DHT22;9645;51.448;6.260;2023-05-19T14:26:49;23.40;1.00
19025;DHT22;9645;51.448;6.260;2023-05-19T14:29:20;23.30;1.00
19025;DHT22;9645;51.448;6.260;2023-05-19T14:31:47;23.20;1.00
19025;DHT22;9645;51.448;6.260;2023-05-19T14:34:14;23.40;1.00
19025;DHT22;9645;51.448;6.260;2023-05-19T14:36:45;23.30;1.00
19025;DHT22;9645;51.448;6.260;2023-05-19T14:39:12;23.40;1.00
19025;DHT22;9645;51.448;6.260;2023-05-19T14:41:39;23.50;1.00
19025;DHT22;9645;51.448;6.260;2023-05-19T14:44:06;23.60;1.00
19025;DHT22;9645;51.448;6.260;2023-05-19T14:46:34;23.60;1.00
19025;DHT22;9645;51.448;6.260;2023-05-19T14:49:01;23.30;1.00
19025;DHT22;9645;51.448;6.260;2023-05-19T14:51:30;23.20;1.00
19025;DHT22;9645;51.448;6.260;2023-05-19T14:53:58;23.20;1.00
19025;DHT22;9645;51.448;6.260;2023-05-19T14:56:26;23.30;1.00
19025;DHT22;9645;51.448;6.260;2023-05-19T15:01:20;22.90;1.00
19025;DHT22;9645;51.448;6.260;2023-05-19T15:03:49;22.80;1.00
19025;DHT22;9645;51.448;6.260;2023-05-19T15:06:16;22.80;1.00
19025;DHT22;9645;51.448;6.260;2023-05-19T15:08:43;22.80;1.00
19025;DHT22;9645;51.448;6.260;2023-05-19T15:11:10;23.10;1.00
19025;DHT22;9645;51.448;6.260;2023-05-19T15:13:37;23.20;1.00
19025;DHT22;9645;51.448;6.260;2023-05-19T15:16:04;22.80;1.00
19025;DHT22;9645;51.448;6.260;2023-05-19T15:18:34;22.60;1.00
19025;DHT22;9645;51.448;6.260;2023-05-19T15:21:03;22.60;1.00
19025;DHT22;9645;51.448;6.260;2023-05-19T15:23:30;22.70;1.00
19025;DHT22;9645;51.448;6.260;2023-05-19T15:25:57;22.70;1.00
19025;DHT22;9645;51.448;6.260;2023-05-19T15:28:24;22.80;1.00
19025;DHT22;9645;51.448;6.260;2023-05-19T15:30:52;22.90;1.00
19025;DHT22;9645;51.448;6.260;2023-05-19T15:33:19;23.10;1.00
19025;DHT22;9645;51.448;6.260;2023-05-19T15:35:46;23.10;1.00
19025;DHT22;9645;51.448;6.260;2023-05-19T15:38:17;23.10;1.00
19025;DHT22;9645;51.448;6.260;2023-05-19T15:40:44;23.10;1.00
19025;DHT22;9645;51.448;6.260;2023-05-19T15:43:11;22.90;1.00
19025;DHT22;9645;51.448;6.260;2023-05-19T15:45:38;22.50;1.00
19025;DHT22;9645;51.448;6.260;2023-05-19T15:48:05;22.20;1.00
19025;DHT22;9645;51.448;6.260;2023-05-19T15:50:32;22.10;1.00
19025;DHT22;9645;51.448;6.260;2023-05-19T15:55:28;22.20;1.00
19025;DHT22;9645;51.448;6.260;2023-05-19T15:57:55;22.20;1.00
19025;DHT22;9645;51.448;6.260;2023-05-19T16:02:50;22.20;1.00
19025;DHT22;9645;51.448;6.260;2023-05-19T16:05:17;22.40;1.00
19025;DHT22;9645;51.448;6.260;2023-05-19T16:07:44;22.40;1.00
19025;DHT22;9645;51.448;6.260;2023-05-19T16:10:11;22.40;1.00
19025;DHT22;9645;51.448;6.260;2023-05-19T16:12:42;22.00;1.00
19025;DHT22;9645;51.448;6.260;2023-05-19T16:15:09;21.70;1.00
19025;DHT22;9645;51.448;6.260;2023-05-19T16:17:37;21.50;1.00
19025;DHT22;9645;51.448;6.260;2023-05-19T16:20:05;21.60;1.00
19025;DHT22;9645;51.448;6.260;2023-05-19T16:22:32;21.80;1.00
19025;DHT22;9645;51.448;6.260;2023-05-19T16:24:59;21.90;1.00
19025;DHT22;9645;51.448;6.260;2023-05-19T16:29:56;21.80;1.00
19025;DHT22;9645;51.448;6.260;2023-05-19T16:32:25;21.90;1.00
19025;DHT22;9645;51.448;6.260;2023-05-19T16:34:52;21.70;1.00
19025;DHT22;9645;51.448;6.260;2023-05-19T16:37:19;21.60;1.00
19025;DHT22;9645;51.448;6.260;2023-05-19T16:39:46;21.50;1.00
19025;DHT22;9645;51.448;6.260;2023-05-19T16:42:13;21.50;1.00
19025;DHT22;9645;51.448;6.260;2023-05-19T16:44:40;21.60;1.00
19025;DHT22;9645;51.448;6.260;2023-05-19T16:47:09;21.60;1.00
19025;DHT22;9645;51.448;6.260;2023-05-19T16:49:37;21.40;1.00
19025;DHT22;9645;51.448;6.260;2023-05-19T16:52:05;21.30;1.00
19025;DHT22;9645;51.448;6.260;2023-05-19T16:54:32;21.10;1.00
19025;DHT22;9645;51.448;6.260;2023-05-19T16:57:00;21.10;1.00
19025;DHT22;9645;51.448;6.260;2023-05-19T16:59:27;21.00;1.00
19025;DHT22;9645;51.448;6.260;2023-05-19T17:04:23;21.10;1.00
19025;DHT22;9645;51.448;6.260;2023-05-19T17:06:50;21.00;1.00
19025;DHT22;9645;51.448;6.260;2023-05-19T17:09:17;20.90;1.00
19025;DHT22;9645;51.448;6.260;2023-05-19T17:11:49;20.80;1.00
19025;DHT22;9645;51.448;6.260;2023-05-19T17:14:17;20.70;1.00
19025;DHT22;9645;51.448;6.260;2023-05-19T17:16:49;20.60;1.00
19025;DHT22;9645;51.448;6.260;2023-05-19T17:19:20;20.50;1.00
19025;DHT22;9645;51.448;6.260;2023-05-19T17:21:51;20.50;1.00
19025;DHT22;9645;51.448;6.260;2023-05-19T17:24:18;20.50;1.00
19025;DHT22;9645;51.448;6.260;2023-05-19T17:26:45;20.50;1.00
19025;DHT22;9645;51.448;6.260;2023-05-19T17:29:12;20.40;1.00
19025;DHT22;9645;51.448;6.260;2023-05-19T17:31:40;20.30;1.00
19025;DHT22;9645;51.448;6.260;2023-05-19T17:34:08;20.20;1.00
19025;DHT22;9645;51.448;6.260;2023-05-19T17:36:36;20.20;1.00
19025;DHT22;9645;51.448;6.260;2023-05-19T17:39:05;20.00;1.00
19025;DHT22;9645;51.448;6.260;2023-05-19T17:44:01;19.80;1.00
19025;DHT22;9645;51.448;6.260;2023-05-19T17:46:28;19.70;1.00
19025;DHT22;9645;51.448;6.260;2023-05-19T17:48:59;19.70;1.00
19025;DHT22;9645;51.448;6.260;2023-05-19T17:51:26;19.70;1.00
19025;DHT22;9645;51.448;6.260;2023-05-19T17:53:54;19.60;1.00
19025;DHT22;9645;51.448;6.260;2023-05-19T17:56:23;19.60;1.00
19025;DHT22;9645;51.448;6.260;2023-05-19T17:58:51;19.40;1.00
19025;DHT22;9645;51.448;6.260;2023-05-19T18:01:19;19.30;1.00
19025;DHT22;9645;51.448;6.260;2023-05-19T18:03:49;19.20;1.00
19025;DHT22;9645;51.448;6.260;2023-05-19T18:08:44;19.00;1.00
19025;DHT22;9645;51.448;6.260;2023-05-19T18:11:15;18.90;1.00
19025;DHT22;9645;51.448;6.260;2023-05-19T18:13:44;18.90;1.00
19025;DHT22;9645;51.448;6.260;2023-05-19T18:16:11;18.70;1.00
19025;DHT22;9645;51.448;6.260;2023-05-19T18:23:39;18.50;1.00
19025;DHT22;9645;51.448;6.260;2023-05-19T18:26:06;18.40;1.00
19025;DHT22;9645;51.448;6.260;2023-05-19T18:28:33;18.30;1.00
19025;DHT22;9645;51.448;6.260;2023-05-19T18:31:03;18.20;1.00
19025;DHT22;9645;51.448;6.260;2023-05-19T18:33:31;18.20;1.00
19025;DHT22;9645;51.448;6.260;2023-05-19T18:35:58;18.10;1.00
19025;DHT22;9645;51.448;6.260;2023-05-19T18:38:25;18.00;1.00
19025;DHT22;9645;51.448;6.260;2023-05-19T18:40:52;17.90;99.90
19025;DHT22;9645;51.448;6.260;2023-05-19T18:43:20;17.90;99.90
19025;DHT22;9645;51.448;6.260;2023-05-19T18:45:47;17.80;1.00
19025;DHT22;9645;51.448;6.260;2023-05-19T18:48:15;17.70;99.90
19025;DHT22;9645;51.448;6.260;2023-05-19T18:50:42;17.70;1.00
19025;DHT22;9645;51.448;6.260;2023-05-19T18:53:09;17.50;99.90
19025;DHT22;9645;51.448;6.260;2023-05-19T18:55:36;17.40;99.90
19025;DHT22;9645;51.448;6.260;2023-05-19T18:58:03;17.30;99.90
19025;DHT22;9645;51.448;6.260;2023-05-19T19:00:31;17.20;99.90
19025;DHT22;9645;51.448;6.260;2023-05-19T19:02:58;17.10;99.90
19025;DHT22;9645;51.448;6.260;2023-05-19T19:05:27;17.10;99.90
19025;DHT22;9645;51.448;6.260;2023-05-19T19:07:54;16.90;99.90
19025;DHT22;9645;51.448;6.260;2023-05-19T19:10:22;16.80;99.90
19025;DHT22;9645;51.448;6.260;2023-05-19T19:12:49;16.70;99.90
19025;DHT22;9645;51.448;6.260;2023-05-19T19:15:16;16.70;99.90
19025;DHT22;9645;51.448;6.260;2023-05-19T19:17:43;16.60;99.90